메인 페이지
METAR-TAF:

METAR-TAF

공항 :

머리디언, 미시시피, 미국

위도: 32-32-47N, 경도: 088-32-35W, 고도: 96m

현재 날씨관측

예보는 50분 전, 13:56시(UTC)에 발표되었습니다.
5kt
온도 26°C
습도 74%
기압 1019 hPa
시정: 16.1km
고도 11000ft 상공 구름 조금
고도 20000ft 상공 구름 보통
고도 28000ft 상공 구름 많음

METAR: KNMM 251356Z 27005KT 10SM FEW110 SCT200 BKN280 26/21 A3008 RMK AO2 SLP193 T02610206

시각: 09:46 (14:46 UTC)

예보

예보 대상 시간: 25일 07시부터 26일 07시까지 (UTC)
여러 방향의 바람 6kt
시정 10km 이상
고도 2000ft 상공 구름 조금
25일 1000시부터 (UTC)
여러 방향의 바람 6kt
시정: 4800m
맑음
박무
25일 1300시부터 (UTC)
여러 방향의 바람 6kt
시정 10km 이상
고도 3500ft 상공 구름 조금
고도 25000ft 상공 구름 보통
전환 중
26일 00시부터 26일 02시까지 (UTC)
여러 방향의 바람 6kt
시정 10km 이상
고도 3000ft 상공 구름 조금
고도 5000ft 상공 구름 보통, 적란운.
시계 내 뇌우
일시적
26일 03시부터 26일 07시까지 (UTC)
시정: 2512m
고도 2000ft 상공 구름 조금
고도 4000ft 상공 구름 보통, 적란운.
고도 15000ft 상공 구름 많음
뇌우, 비

TAF: KNMM 2507/2607 VRB06KT 9999 FEW020 QNH2991INS FM251000 VRB06KT 4800 BR SKC QNH2994INS FM251300 VRB06KT 9999 FEW035 SCT250 QNH2999INS BECMG 2600/2602 VRB06KT 9999 VCTS FEW030 SCT050CB BKN2000 QNH3000INS TEMPO 2603/2607 4800 TSRA FEW020 SCT040CB BKN150 AUTOMATED SENSOR METWATCH 2507 TIL 2512 T20/2511Z T33/2521Z FN00204

4,000개 이상의 공항 관측 자료 및 예보 (METAR 및 TAF 보고).

지도상에서 검색 가능한 기상관측소가 노란 점과 빨간 점으로 표시되어 있습니다.

기상관측소 명을 보려면 표시 위로 마우스를 이동하세요.

날씨 관측과 예보를 보려면 클릭하세요.

지도 변경 : 확대하려면 엑스 표시가 있는 녹색 버튼, 축소하려면 빼기 표시가 있는 녹색 버튼, 다음 페이지의 지도를 보려면 녹색 화살표를 클릭하세요.


METAR-TAF: